Time;durP1;ratioP1;P1;durP2;ratioP2;P2;SDS_P1;SDS_P2;PMS_P1;PMS_P2;Temp;Humidity;BMP_temperature;BMP_pressure;BME280_temperature;BME280_humidity;BME280_pressure;Samples;Min_cycle;Max_cycle;Signal;HPM_P1;HPM_P2
2021/05/09 00:01:05;;;;;;;;;;;;;;;10.08;45.52;95541.81;4988807;28;19917;-81
2021/05/09 00:03:31;;;;;;;;;;;;;;;10.06;44.64;95538.63;4980111;28;19969;-80
2021/05/09 00:05:56;;;;;;;;;;;;;;;10.02;44.96;95539.28;4983090;28;19918;-79
2021/05/09 00:08:21;;;;;;;;;;;;;;;9.99;45.59;95542.31;4980693;28;19922;-81
2021/05/09 00:10:47;;;;;;;;;;;;;;;10.06;47.07;95543.84;4989531;28;19914;-81
2021/05/09 00:13:12;;;;;;;;;;;;;;;9.96;46.66;95543.53;5020810;28;19908;-81
2021/05/09 00:15:37;;;;;;;;;;;;;;;9.87;47.67;95539.56;5006212;28;20431;-81
2021/05/09 00:18:03;;;;;;;;;;;;;;;9.88;47.01;95541.16;5008823;28;19932;-80
2021/05/09 00:20:28;;;;;;;;;;;;;;;9.91;47.67;95535.53;4998493;28;19922;-82
2021/05/09 00:22:53;;;;;;;;;;;;;;;9.84;48.37;95534.78;4986374;28;19925;-82
2021/05/09 00:25:19;;;;;;;;;;;;;;;9.75;48.34;95541.22;4984957;28;19918;-82
2021/05/09 00:27:44;;;;;;;;;;;;;;;9.73;48.16;95540.63;5003172;28;20366;-82
2021/05/09 00:30:10;;;;;;;;;;;;;;;9.69;48.15;95536.88;4984618;28;19925;-82
2021/05/09 00:32:35;;;;;;;;;;;;;;;9.73;48.75;95532.84;4985356;28;19918;-82
2021/05/09 00:35:00;;;;;;;;;;;;;;;9.76;48.70;95529.84;4986158;28;19943;-81
2021/05/09 00:37:26;;;;;;;;;;;;;;;9.74;49.58;95532.63;4981823;28;19913;-81
2021/05/09 00:39:51;;;;;;;;;;;;;;;9.70;49.27;95528.06;4984806;28;19922;-81
2021/05/09 00:42:17;;;;;;;;;;;;;;;9.56;50.06;95532.53;4985141;28;19960;-81
2021/05/09 00:44:42;;;;;;;;;;;;;;;9.42;50.02;95531.00;4983190;28;19925;-82
2021/05/09 00:47:09;;;;;;;;;;;;;;;9.43;49.98;95538.56;5000321;28;20392;-81
2021/05/09 00:49:35;;;;;;;;;;;;;;;9.45;49.86;95536.59;4983062;28;19918;-82
2021/05/09 00:52:00;;;;;;;;;;;;;;;9.48;49.67;95532.78;4997359;28;19932;-82
2021/05/09 00:54:26;;;;;;;;;;;;;;;9.44;49.87;95534.22;4981387;28;19922;-82
2021/05/09 00:56:54;;;;;;;;;;;;;;;9.45;48.66;95536.59;4998924;28;20357;-82
2021/05/09 00:59:19;;;;;;;;;;;;;;;9.42;49.85;95541.38;4982043;28;19918;-81
2021/05/09 01:01:44;;;;;;;;;;;;;;;9.44;49.75;95542.00;4966911;28;19969;-82
2021/05/09 01:04:09;;;;;;;;;;;;;;;9.31;50.32;95550.63;4997849;28;19917;-82
2021/05/09 01:06:35;;;;;;;;;;;;;;;9.14;50.60;95545.09;4965740;28;19975;-82
2021/05/09 01:11:29;;;;;;;;;;;;;;;9.19;50.20;95541.88;5016370;22;19981;-80
2021/05/09 01:13:55;;;;;;;;;;;;;;;9.11;50.72;95549.88;4981485;28;19968;-80
2021/05/09 01:16:20;;;;;;;;;;;;;;;9.09;50.90;95549.28;4979259;28;19937;-80
2021/05/09 01:18:45;;;;;;;;;;;;;;;9.08;50.41;95545.09;4979936;28;19922;-80
2021/05/09 01:21:10;;;;;;;;;;;;;;;9.01;51.13;95551.13;4979906;28;20000;-80
2021/05/09 01:23:36;;;;;;;;;;;;;;;8.86;51.28;95553.13;4980775;28;19922;-80
2021/05/09 01:26:01;;;;;;;;;;;;;;;8.88;51.80;95545.94;4981459;28;20326;-79
2021/05/09 01:28:26;;;;;;;;;;;;;;;8.93;51.22;95550.53;4995353;23;19922;-80
2021/05/09 01:30:51;;;;;;;;;;;;;;;8.91;51.43;95549.94;4980144;28;20421;-81
2021/05/09 01:33:18;;;;;;;;;;;;;;;8.95;51.83;95556.34;4979730;28;19948;-79
2021/05/09 01:35:43;;;;;;;;;;;;;;;8.77;52.34;95553.53;4982162;28;20305;-80
2021/05/09 01:38:08;;;;;;;;;;;;;;;8.78;51.61;95555.94;4981253;28;19928;-80
2021/05/09 01:40:33;;;;;;;;;;;;;;;8.71;52.22;95555.97;4988628;28;19924;-80
2021/05/09 01:42:59;;;;;;;;;;;;;;;8.73;52.30;95548.78;4990586;28;20114;-80
2021/05/09 01:45:24;;;;;;;;;;;;;;;8.69;52.56;95551.97;4990106;28;20022;-81
2021/05/09 01:47:49;;;;;;;;;;;;;;;8.69;52.53;95557.97;4992412;28;19921;-82
2021/05/09 01:50:15;;;;;;;;;;;;;;;8.69;52.22;95551.97;4991831;28;19921;-82
2021/05/09 01:52:41;;;;;;;;;;;;;;;8.59;52.55;95554.97;5014059;28;19918;-82
2021/05/09 01:55:07;;;;;;;;;;;;;;;8.56;52.97;95564.94;4998188;28;20321;-81
2021/05/09 01:57:32;;;;;;;;;;;;;;;8.54;53.21;95564.34;4991096;28;20305;-80
2021/05/09 01:59:58;;;;;;;;;;;;;;;8.59;52.53;95567.13;4999103;28;19921;-81
2021/05/09 02:02:23;;;;;;;;;;;;;;;8.57;52.56;95563.94;5013827;28;19921;-81
2021/05/09 02:04:49;;;;;;;;;;;;;;;8.55;53.20;95563.34;4981845;28;19972;-81
2021/05/09 02:07:14;;;;;;;;;;;;;;;8.58;53.06;95560.34;5012568;28;20009;-81
2021/05/09 02:09:39;;;;;;;;;;;;;;;8.55;53.13;95560.75;4982817;28;20362;-80
2021/05/09 02:12:05;;;;;;;;;;;;;;;8.51;53.21;95568.16;4997632;22;19922;-81
2021/05/09 02:14:30;;;;;;;;;;;;;;;8.49;52.82;95571.94;4978757;28;19922;-81
2021/05/09 02:16:55;;;;;;;;;;;;;;;8.44;53.08;95559.56;4977877;28;19918;-80
2021/05/09 02:19:21;;;;;;;;;;;;;;;8.35;53.12;95573.72;4977166;28;20374;-81
2021/05/09 02:21:46;;;;;;;;;;;;;;;8.33;53.09;95573.09;4977940;28;19918;-81
2021/05/09 02:24:11;;;;;;;;;;;;;;;8.23;52.86;95568.28;5126484;22;19933;-82
2021/05/09 02:26:36;;;;;;;;;;;;;;;8.23;53.14;95583.84;4997464;28;19924;-82
2021/05/09 02:29:02;;;;;;;;;;;;;;;8.23;53.09;95577.88;5004356;28;20004;-82
2021/05/09 02:31:27;;;;;;;;;;;;;;;8.22;53.07;95571.88;5002957;28;20381;-82
2021/05/09 02:33:52;;;;;;;;;;;;;;;8.27;53.36;95579.84;5315930;22;19984;-82
2021/05/09 02:36:18;;;;;;;;;;;;;;;8.26;53.35;95580.06;4982635;28;20364;-81
2021/05/09 02:38:43;;;;;;;;;;;;;;;8.21;53.41;95582.44;4978010;28;19928;-81
2021/05/09 02:41:08;;;;;;;;;;;;;;;8.05;53.96;95575.84;4978132;28;19965;-82
2021/05/09 02:43:34;;;;;;;;;;;;;;;7.99;54.56;95585.22;4978827;28;19918;-81
2021/05/09 02:45:59;;;;;;;;;;;;;;;7.88;54.94;95592.75;4969231;28;19917;-82
2021/05/09 02:48:24;;;;;;;;;;;;;;;7.91;55.02;95587.19;4978289;28;19925;-82
2021/05/09 02:50:49;;;;;;;;;;;;;;;7.86;55.22;95594.75;4978957;28;19929;-82
2021/05/09 02:53:15;;;;;;;;;;;;;;;7.92;54.77;95596.53;4977781;28;19918;-81
2021/05/09 02:55:40;;;;;;;;;;;;;;;7.94;54.84;95602.31;5039585;22;19922;-80
2021/05/09 02:58:05;;;;;;;;;;;;;;;7.95;54.75;95590.97;4994867;28;20010;-81
2021/05/09 03:00:31;;;;;;;;;;;;;;;7.94;54.51;95600.53;4988138;28;20484;-81
2021/05/09 03:02:56;;;;;;;;;;;;;;;7.85;54.88;95606.88;4988355;28;19918;-81
2021/05/09 03:05:21;;;;;;;;;;;;;;;7.87;55.00;95604.09;4990976;28;19922;-81
2021/05/09 03:07:46;;;;;;;;;;;;;;;7.88;54.93;95608.28;4987696;28;20361;-81
2021/05/09 03:10:12;;;;;;;;;;;;;;;7.77;55.05;95618.19;4990729;28;19921;-81
2021/05/09 03:12:37;;;;;;;;;;;;;;;7.64;55.37;95619.94;4988951;28;20395;-80
2021/05/09 03:15:02;;;;;;;;;;;;;;;7.61;55.84;95623.72;4987067;28;19918;-80
2021/05/09 03:17:27;;;;;;;;;;;;;;;7.69;55.18;95628.75;4990849;28;20363;-80
2021/05/09 03:19:53;;;;;;;;;;;;;;;7.76;55.07;95619.19;4987808;28;20450;-81
2021/05/09 03:22:18;;;;;;;;;;;;;;;7.82;54.01;95623.63;4986457;28;19918;-81
2021/05/09 03:24:43;;;;;;;;;;;;;;;7.76;54.19;95634.72;4984492;28;20086;-82
2021/05/09 03:27:09;;;;;;;;;;;;;;;7.82;54.13;95623.63;4986008;28;19968;-81
2021/05/09 03:29:40;;;;;;;;;;;;;;;7.80;54.57;95620.41;4985836;28;20286;-81
2021/05/09 03:32:05;;;;;;;;;;;;;;;7.90;53.70;95630.41;4983372;28;19929;-80
2021/05/09 03:34:30;;;;;;;;;;;;;;;8.01;54.10;95632.44;4986726;28;19922;-81
2021/05/09 03:36:56;;;;;;;;;;;;;;;7.98;54.42;95621.66;4984076;28;20027;-81
2021/05/09 03:39:21;;;;;;;;;;;;;;;7.95;54.81;95632.41;4984026;28;19920;-81
2021/05/09 03:41:46;;;;;;;;;;;;;;;8.02;53.99;95641.00;4984655;28;19918;-81
2021/05/09 03:44:12;;;;;;;;;;;;;;;8.00;54.40;95637.81;4986417;28;19918;-81
2021/05/09 03:46:37;;;;;;;;;;;;;;;7.99;53.73;95639.59;4975449;28;20008;-82
2021/05/09 03:49:02;;;;;;;;;;;;;;;8.19;53.72;95644.81;4972513;28;20365;-81
2021/05/09 03:51:27;;;;;;;;;;;;;;;8.25;53.78;95654.41;4982736;28;19938;-82
2021/05/09 03:53:53;;;;;;;;;;;;;;;8.28;54.11;95654.00;4994222;28;19929;-81
2021/05/09 03:56:18;;;;;;;;;;;;;;;8.42;54.16;95655.66;5009936;28;19969;-81
2021/05/09 03:58:43;;;;;;;;;;;;;;;8.51;52.19;95652.88;5000108;28;20554;-82
2021/05/09 04:01:08;;;;;;;;;;;;;;;8.56;52.60;95660.84;4988502;28;19925;-80
2021/05/09 04:03:34;;;;;;;;;;;;;;;8.91;51.44;95658.88;4982935;28;19938;-80
2021/05/09 04:05:59;;;;;;;;;;;;;;;10.98;46.62;95651.59;4982365;28;19922;-82
2021/05/09 04:08:25;;;;;;;;;;;;;;;13.59;40.00;95658.16;5009440;23;19916;-82
2021/05/09 04:10:51;;;;;;;;;;;;;;;15.73;35.12;95646.09;5007388;28;19926;-82
2021/05/09 04:13:16;;;;;;;;;;;;;;;17.87;31.01;95646.91;5055331;23;20315;-82
2021/05/09 04:15:41;;;;;;;;;;;;;;;19.85;27.63;95640.19;4980775;28;19918;-81
2021/05/09 04:18:07;;;;;;;;;;;;;;;21.69;25.65;95640.56;4991937;22;19933;-81
2021/05/09 04:20:32;;;;;;;;;;;;;;;23.53;23.47;95642.97;4997539;28;19922;-82
2021/05/09 04:23:07;;;;;;;;;;;;;;;25.14;21.13;95655.88;5039418;22;19933;-82
2021/05/09 04:25:32;;;;;;;;;;;;;;;26.38;19.69;95643.59;5013052;23;19921;-82
2021/05/09 04:27:58;;;;;;;;;;;;;;;26.86;18.93;95644.25;4991496;28;20369;-82
2021/05/09 04:33:04;;;;;;;;;;;;;;;29.79;15.96;95656.28;4963511;28;20437;-81
2021/05/09 04:35:29;;;;;;;;;;;;;;;30.59;15.10;95663.75;4955468;28;19922;-81
2021/05/09 04:37:55;;;;;;;;;;;;;;;31.67;14.35;95653.72;4955344;28;19922;-81
2021/05/09 04:40:20;;;;;;;;;;;;;;;32.63;13.49;95654.44;4938710;29;19922;-82
2021/05/09 04:42:45;;;;;;;;;;;;;;;33.24;13.10;95665.34;4952934;28;19973;-81
2021/05/09 04:45:11;;;;;;;;;;;;;;;34.24;11.71;95672.47;4937464;29;19922;-81
2021/05/09 04:47:36;;;;;;;;;;;;;;;34.77;11.56;95672.47;4953146;29;19941;-82
2021/05/09 04:50:02;;;;;;;;;;;;;;;35.79;10.63;95672.88;4953507;29;20001;-81
2021/05/09 04:52:28;;;;;;;;;;;;;;;36.84;10.04;95670.59;4954668;28;19919;-82
2021/05/09 04:54:53;;;;;;;;;;;;;;;37.55;9.56;95670.84;4952142;29;19980;-82
2021/05/09 04:57:18;;;;;;;;;;;;;;;38.14;8.60;95674.03;4955132;28;19923;-82
2021/05/09 04:59:43;;;;;;;;;;;;;;;38.23;9.04;95681.00;4954954;29;20351;-81
2021/05/09 05:04:45;;;;;;;;;;;;;;;39.40;7.83;95682.69;4992264;28;19976;-82
2021/05/09 05:07:11;;;;;;;;;;;;;;;39.63;7.75;95677.50;4993783;28;19968;-82
2021/05/09 05:09:38;;;;;;;;;;;;;;;40.02;7.78;95671.78;4992634;28;19967;-82
2021/05/09 05:12:04;;;;;;;;;;;;;;;40.70;7.28;95680.16;4993739;28;19929;-82
2021/05/09 05:14:29;;;;;;;;;;;;;;;40.88;6.98;95671.78;4991759;28;19918;-81
2021/05/09 05:16:54;;;;;;;;;;;;;;;41.07;7.19;95673.88;4996925;28;20389;-82
2021/05/09 05:19:20;;;;;;;;;;;;;;;41.53;6.34;95669.03;4994211;28;19925;-82
2021/05/09 05:21:46;;;;;;;;;;;;;;;41.45;6.38;95673.81;4998737;28;19914;-81
2021/05/09 05:24:11;;;;;;;;;;;;;;;41.80;6.70;95679.97;5007564;28;19941;-81
2021/05/09 05:26:37;;;;;;;;;;;;;;;42.60;6.09;95681.78;4983687;28;19918;-80
2021/05/09 05:29:02;;;;;;;;;;;;;;;42.81;5.77;95680.63;4990203;28;19918;-81
2021/05/09 05:31:27;;;;;;;;;;;;;;;43.56;5.55;95695.53;4990979;28;20063;-80
2021/05/09 05:33:52;;;;;;;;;;;;;;;44.08;5.55;95698.25;4992287;28;20484;-81
2021/05/09 05:36:18;;;;;;;;;;;;;;;44.24;5.32;95700.25;4990864;28;19914;-81
2021/05/09 05:38:44;;;;;;;;;;;;;;;44.70;4.98;95696.34;4991713;28;20016;-79
2021/05/09 05:41:09;;;;;;;;;;;;;;;45.24;5.08;95698.41;4990569;28;20310;-79
2021/05/09 05:43:35;;;;;;;;;;;;;;;45.20;4.83;95704.00;4993175;28;19944;-79
2021/05/09 05:46:00;;;;;;;;;;;;;;;45.58;4.81;95713.53;4991807;28;19922;-81
2021/05/09 05:48:25;;;;;;;;;;;;;;;45.73;4.55;95709.94;4992080;28;19933;-80
2021/05/09 05:50:51;;;;;;;;;;;;;;;45.80;4.37;95708.19;4993146;28;19918;-81
2021/05/09 05:53:19;;;;;;;;;;;;;;;45.90;4.35;95704.34;4992233;28;19941;-81
2021/05/09 05:55:45;;;;;;;;;;;;;;;45.87;4.17;95705.19;4992196;28;20418;-80
2021/05/09 05:58:10;;;;;;;;;;;;;;;45.40;4.60;95705.81;4992501;28;19928;-81
2021/05/09 06:00:36;;;;;;;;;;;;;;;45.19;4.81;95702.44;4990573;28;20009;-80
2021/05/09 06:03:01;;;;;;;;;;;;;;;44.99;4.82;95707.34;4992991;28;20384;-80
2021/05/09 06:05:26;;;;;;;;;;;;;;;45.20;4.78;95704.00;4992510;28;19918;-80
2021/05/09 06:07:51;;;;;;;;;;;;;;;44.77;4.95;95706.38;4992011;28;19936;-80
2021/05/09 06:10:17;;;;;;;;;;;;;;;44.76;4.88;95710.31;4993427;28;19918;-81
2021/05/09 06:12:43;;;;;;;;;;;;;;;44.58;4.93;95697.81;4992903;28;19936;-81
2021/05/09 06:15:10;;;;;;;;;;;;;;;44.23;5.20;95706.94;4992102;28;19928;-81
2021/05/09 06:17:35;;;;;;;;;;;;;;;43.44;5.39;95711.44;4997306;28;20085;-80
2021/05/09 06:20:01;;;;;;;;;;;;;;;42.63;6.32;95691.13;5007308;28;20520;-80
2021/05/09 06:22:26;;;;;;;;;;;;;;;42.62;6.18;95701.28;5007009;28;20777;-81
2021/05/09 06:24:52;;;;;;;;;;;;;;;41.65;6.78;95704.72;4990032;28;19942;-80
2021/05/09 06:27:17;;;;;;;;;;;;;;;39.87;7.54;95703.03;5007005;28;19917;-80
2021/05/09 06:29:42;;;;;;;;;;;;;;;38.08;8.14;95701.97;5001115;28;20369;-81
2021/05/09 06:32:08;;;;;;;;;;;;;;;36.95;8.48;95697.75;4996445;23;19925;-81
2021/05/09 06:34:33;;;;;;;;;;;;;;;35.54;9.74;95703.56;4974798;28;20294;-81
2021/05/09 06:36:58;;;;;;;;;;;;;;;34.43;10.43;95707.50;4973610;28;19993;-81
2021/05/09 06:39:29;;;;;;;;;;;;;;;34.09;10.91;95703.09;4951014;28;20298;-80
2021/05/09 06:41:57;;;;;;;;;;;;;;;33.41;11.03;95708.06;4954516;29;19919;-82
2021/05/09 06:44:25;;;;;;;;;;;;;;;32.77;11.55;95712.09;4989326;23;19979;-81
2021/05/09 06:46:50;;;;;;;;;;;;;;;32.19;12.46;95701.13;4998011;28;19918;-80
2021/05/09 06:49:15;;;;;;;;;;;;;;;31.85;12.63;95704.50;5005060;28;20060;-80
2021/05/09 06:51:41;;;;;;;;;;;;;;;31.31;13.03;95708.47;4990473;28;19957;-81
2021/05/09 06:54:06;;;;;;;;;;;;;;;30.58;12.36;95710.50;4973420;28;19921;-82
2021/05/09 06:56:32;;;;;;;;;;;;;;;29.93;13.25;95717.63;4992494;28;19984;-81
2021/05/09 06:58:57;;;;;;;;;;;;;;;29.38;13.18;95716.13;4993919;28;20366;-83
2021/05/09 07:01:22;;;;;;;;;;;;;;;28.66;13.78;95718.09;4982919;28;19939;-85
2021/05/09 07:03:48;;;;;;;;;;;;;;;28.10;14.54;95715.50;4999760;28;19921;-82
2021/05/09 07:06:13;;;;;;;;;;;;;;;27.85;14.71;95713.72;4998289;28;19917;-81
2021/05/09 07:08:38;;;;;;;;;;;;;;;27.56;15.02;95714.38;4998806;28;19926;-81
2021/05/09 07:11:03;;;;;;;;;;;;;;;27.20;15.40;95717.44;4997778;28;20374;-82
2021/05/09 07:13:29;;;;;;;;;;;;;;;26.92;15.66;95725.72;5000371;28;19921;-83
2021/05/09 07:15:56;;;;;;;;;;;;;;;26.61;15.41;95714.38;4981786;28;20309;-79
2021/05/09 07:18:23;;;;;;;;;;;;;;;26.51;15.80;95712.00;5029150;23;19925;-79
2021/05/09 07:20:59;;;;;;;;;;;;;;;26.19;15.73;95710.47;4995297;28;20308;-81
2021/05/09 07:23:26;;;;;;;;;;;;;;;25.92;15.59;95714.94;4997679;28;20329;-78
2021/05/09 07:25:51;;;;;;;;;;;;;;;25.91;16.15;95716.03;4997048;28;19921;-79
2021/05/09 07:28:17;;;;;;;;;;;;;;;25.84;15.97;95710.34;4995251;28;19929;-82
2021/05/09 07:30:43;;;;;;;;;;;;;;;25.89;16.14;95712.09;5064111;22;19926;-81
2021/05/09 07:33:09;;;;;;;;;;;;;;;25.83;15.72;95718.63;5009819;28;19910;-80
2021/05/09 07:35:34;;;;;;;;;;;;;;;25.33;16.32;95721.44;4995023;28;19933;-81
2021/05/09 07:38:00;;;;;;;;;;;;;;;25.13;16.18;95718.19;5072462;23;19943;-81
2021/05/09 07:40:25;;;;;;;;;;;;;;;24.72;16.64;95712.16;4988210;28;19922;-80
2021/05/09 07:42:50;;;;;;;;;;;;;;;24.24;17.31;95715.25;4999236;28;19992;-81
2021/05/09 07:45:20;;;;;;;;;;;;;;;24.14;17.22;95718.13;5004958;28;19922;-81
2021/05/09 07:47:45;;;;;;;;;;;;;;;23.83;17.19;95716.03;4987787;28;19921;-81
2021/05/09 07:50:11;;;;;;;;;;;;;;;23.84;17.29;95717.59;4985918;28;19953;-81
2021/05/09 07:52:36;;;;;;;;;;;;;;;23.76;18.48;95718.28;5037119;22;19926;-82
2021/05/09 07:55:01;;;;;;;;;;;;;;;23.81;19.16;95710.22;4984409;28;19984;-81
2021/05/09 07:57:27;;;;;;;;;;;;;;;23.46;17.44;95703.63;4992244;28;19918;-82
2021/05/09 08:00:03;;;;;;;;;;;;;;;22.72;18.36;95705.25;4972737;28;19918;-78
2021/05/09 08:02:28;;;;;;;;;;;;;;;22.42;18.41;95696.63;4970840;28;20301;-78
2021/05/09 08:04:53;;;;;;;;;;;;;;;22.34;18.84;95707.88;4990567;28;19918;-77
2021/05/09 08:07:19;;;;;;;;;;;;;;;22.12;18.62;95707.59;4989230;28;20278;-78
2021/05/09 08:09:44;;;;;;;;;;;;;;;21.97;18.60;95705.91;4986669;28;19922;-78
2021/05/09 08:12:09;;;;;;;;;;;;;;;21.91;19.10;95707.00;4989526;28;19914;-77
2021/05/09 08:14:35;;;;;;;;;;;;;;;21.45;19.21;95711.97;4989430;28;19922;-77
2021/05/09 08:17:00;;;;;;;;;;;;;;;21.30;19.41;95704.16;4972573;28;20397;-78
2021/05/09 08:19:25;;;;;;;;;;;;;;;21.17;20.32;95708.22;4984210;28;19922;-77
2021/05/09 08:21:50;;;;;;;;;;;;;;;21.20;21.58;95707.66;4983382;28;19921;-78
2021/05/09 08:24:19;;;;;;;;;;;;;;;21.14;20.37;95701.59;4984051;28;19929;-78
2021/05/09 08:26:44;;;;;;;;;;;;;;;20.76;20.62;95708.47;4985675;28;19976;-78
2021/05/09 08:29:10;;;;;;;;;;;;;;;20.84;18.49;95701.84;4982452;28;19918;-77
2021/05/09 08:31:36;;;;;;;;;;;;;;;20.83;18.70;95701.03;4986121;28;19984;-78
2021/05/09 08:34:01;;;;;;;;;;;;;;;20.87;19.93;95703.94;4984786;28;19944;-78
2021/05/09 08:36:26;;;;;;;;;;;;;;;21.01;20.10;95704.88;4984817;28;19922;-77
2021/05/09 08:38:52;;;;;;;;;;;;;;;20.98;21.23;95700.13;4991034;28;20448;-79
2021/05/09 08:41:17;;;;;;;;;;;;;;;20.89;21.03;95699.94;4988004;28;19917;-77
2021/05/09 08:43:43;;;;;;;;;;;;;;;20.90;19.53;95696.22;4984164;28;19918;-79
2021/05/09 08:46:09;;;;;;;;;;;;;;;21.01;20.81;95709.38;4985323;28;19941;-78
2021/05/09 08:48:35;;;;;;;;;;;;;;;20.57;20.16;95699.59;4983074;28;19965;-78
2021/05/09 08:51:02;;;;;;;;;;;;;;;20.16;20.47;95702.38;4964877;28;19922;-78
2021/05/09 08:53:27;;;;;;;;;;;;;;;20.31;20.05;95702.34;4981468;28;19922;-78
2021/05/09 08:55:52;;;;;;;;;;;;;;;20.34;19.79;95707.09;4983808;28;19924;-78
2021/05/09 08:58:18;;;;;;;;;;;;;;;20.13;18.81;95700.28;4981559;28;19929;-78
2021/05/09 09:00:44;;;;;;;;;;;;;;;20.16;18.13;95693.69;4981955;28;19926;-79
2021/05/09 09:03:09;;;;;;;;;;;;;;;20.17;18.46;95696.06;4982052;28;19937;-78
2021/05/09 09:05:35;;;;;;;;;;;;;;;20.23;18.35;95684.41;4979384;28;20445;-76
2021/05/09 09:08:01;;;;;;;;;;;;;;;20.39;18.79;95688.56;4979742;28;19925;-77
2021/05/09 09:10:32;;;;;;;;;;;;;;;20.10;18.98;95685.00;4965584;28;19922;-77
2021/05/09 09:13:01;;;;;;;;;;;;;;;20.19;18.54;95688.66;4982087;28;19926;-78
2021/05/09 09:15:45;;;;;;;;;;;;;;;20.26;19.00;95678.59;4980681;28;19918;-78
2021/05/09 09:18:27;;;;;;;;;;;;;;;19.63;20.11;95680.13;5003430;28;20421;-77
2021/05/09 09:20:52;;;;;;;;;;;;;;;19.07;20.07;95678.31;4980017;28;19922;-77
2021/05/09 09:23:17;;;;;;;;;;;;;;;18.98;20.73;95669.34;4984633;28;20489;-78
2021/05/09 09:25:42;;;;;;;;;;;;;;;18.92;21.16;95686.22;4984934;28;20432;-78
2021/05/09 09:28:08;;;;;;;;;;;;;;;18.77;21.25;95686.97;4986775;28;20375;-81
2021/05/09 09:33:09;;;;;;;;;;;;;;;18.99;22.14;95676.19;4997571;22;19944;-82
2021/05/09 09:35:34;;;;;;;;;;;;;;;19.16;22.30;95668.81;4977971;28;20336;-84
2021/05/09 09:37:59;;;;;;;;;;;;;;;19.35;22.08;95670.88;4975419;28;19924;-83
2021/05/09 09:40:25;;;;;;;;;;;;;;;19.49;21.98;95666.66;4982601;28;19965;-82
2021/05/09 09:42:50;;;;;;;;;;;;;;;19.53;21.61;95665.09;4988004;28;19993;-83
2021/05/09 09:45:15;;;;;;;;;;;;;;;19.72;22.79;95663.47;4992459;28;19924;-82
2021/05/09 09:47:47;;;;;;;;;;;;;;;19.86;22.19;95657.66;4993313;28;19922;-83
2021/05/09 09:50:33;;;;;;;;;;;;;;;19.98;21.75;95666.81;4987450;28;19922;-81
2021/05/09 09:52:58;;;;;;;;;;;;;;;20.00;20.98;95663.91;4985369;28;19928;-79
2021/05/09 09:55:26;;;;;;;;;;;;;;;19.96;20.75;95665.50;4983106;28;20017;-79
2021/05/09 09:58:01;;;;;;;;;;;;;;;20.00;21.63;95663.91;5168260;22;19992;-77
2021/05/09 10:00:27;;;;;;;;;;;;;;;20.08;21.45;95661.50;4982720;28;19957;-79
2021/05/09 10:02:55;;;;;;;;;;;;;;;20.08;22.79;95663.34;4986846;28;19928;-78
2021/05/09 10:05:20;;;;;;;;;;;;;;;20.05;20.68;95666.53;4989316;28;19925;-77
2021/05/09 10:07:45;;;;;;;;;;;;;;;19.86;20.81;95669.00;4988919;28;19918;-77
2021/05/09 10:10:11;;;;;;;;;;;;;;;19.68;20.76;95657.13;4988150;28;19918;-74
2021/05/09 10:12:36;;;;;;;;;;;;;;;19.57;20.91;95650.34;4989662;28;19945;-80
2021/05/09 10:15:01;;;;;;;;;;;;;;;19.63;21.15;95646.59;4989206;28;20012;-77
2021/05/09 10:17:27;;;;;;;;;;;;;;;19.52;21.26;95645.00;4991388;28;20378;-78
2021/05/09 10:19:52;;;;;;;;;;;;;;;19.60;22.10;95641.88;4991965;28;19967;-77
2021/05/09 10:22:30;;;;;;;;;;;;;;;19.47;21.91;95650.31;4989454;28;19964;-77
2021/05/09 10:24:55;;;;;;;;;;;;;;;19.29;22.13;95638.47;4972460;28;19917;-77
2021/05/09 10:27:33;;;;;;;;;;;;;;;19.02;22.30;95646.66;4990849;28;20386;-77
2021/05/09 10:29:58;;;;;;;;;;;;;;;19.11;22.29;95652.22;4988982;28;19957;-77
2021/05/09 10:32:26;;;;;;;;;;;;;;;18.91;22.42;95653.00;4988762;28;19973;-77
2021/05/09 10:34:55;;;;;;;;;;;;;;;18.47;21.94;95644.75;4991987;28;19972;-78
2021/05/09 10:40:19;;;;;;;;;;;;;;;18.57;22.14;95627.13;4995208;28;20001;-79
2021/05/09 10:42:44;;;;;;;;;;;;;;;18.80;21.50;95622.41;4995726;28;19945;-78
2021/05/09 10:45:10;;;;;;;;;;;;;;;18.69;21.63;95626.09;4996007;28;19967;-80
2021/05/09 10:47:35;;;;;;;;;;;;;;;18.66;21.80;95629.25;4976213;28;19922;-80
2021/05/09 10:50:12;;;;;;;;;;;;;;;18.73;21.21;95624.53;4995131;28;19941;-79
2021/05/09 10:52:40;;;;;;;;;;;;;;;18.91;20.76;95621.38;4995663;28;19928;-79
2021/05/09 10:57:45;;;;;;;;;;;;;;;18.91;19.82;95612.69;4978481;28;19980;-78
2021/05/09 11:00:10;;;;;;;;;;;;;;;18.87;19.95;95610.59;4966464;28;19926;-78
2021/05/09 11:02:35;;;;;;;;;;;;;;;18.95;19.55;95606.59;4966998;28;19925;-78
2021/05/09 11:05:01;;;;;;;;;;;;;;;18.65;19.90;95601.34;4966505;28;19929;-78
2021/05/09 11:07:44;;;;;;;;;;;;;;;18.42;21.04;95608.66;4966715;28;19934;-78
2021/05/09 11:10:28;;;;;;;;;;;;;;;18.41;20.95;95622.88;4974856;28;19968;-78
2021/05/09 11:13:03;;;;;;;;;;;;;;;18.37;20.37;95607.84;4992336;28;19918;-79
2021/05/09 11:15:29;;;;;;;;;;;;;;;18.42;20.88;95590.22;4978526;28;19934;-79
2021/05/09 11:17:54;;;;;;;;;;;;;;;18.56;20.48;95596.56;4968615;28;19918;-81
2021/05/09 11:20:19;;;;;;;;;;;;;;;18.75;20.57;95590.81;4973169;28;19919;-80
2021/05/09 11:22:45;;;;;;;;;;;;;;;18.78;20.12;95595.53;4972655;28;20323;-79
2021/05/09 11:25:10;;;;;;;;;;;;;;;18.74;19.68;95591.88;4970394;28;19969;-80
2021/05/09 11:27:36;;;;;;;;;;;;;;;18.77;19.76;95584.22;4970456;28;19918;-80
2021/05/09 11:30:02;;;;;;;;;;;;;;;18.95;19.55;95590.78;4968395;28;19926;-80
2021/05/09 11:35:03;;;;;;;;;;;;;;;18.71;19.73;95574.75;5072347;22;20257;-79
2021/05/09 11:37:39;;;;;;;;;;;;;;;18.96;20.31;95587.09;5021277;28;19921;-79
2021/05/09 11:40:05;;;;;;;;;;;;;;;18.96;19.61;95575.78;5003630;28;19921;-79
2021/05/09 11:42:31;;;;;;;;;;;;;;;18.85;20.93;95567.06;5023546;28;19921;-78
2021/05/09 11:44:57;;;;;;;;;;;;;;;18.90;20.73;95567.09;4988228;28;19917;-79
2021/05/09 11:47:26;;;;;;;;;;;;;;;18.91;20.83;95571.31;5009753;28;19968;-81
2021/05/09 11:49:55;;;;;;;;;;;;;;;19.03;20.93;95566.53;5002886;28;19925;-80
2021/05/09 11:52:21;;;;;;;;;;;;;;;18.97;20.54;95564.16;5001523;28;20087;-78
2021/05/09 11:54:47;;;;;;;;;;;;;;;18.69;21.10;95549.69;5019914;28;20366;-79
2021/05/09 11:57:12;;;;;;;;;;;;;;;18.71;20.83;95555.47;5003789;28;19922;-78
2021/05/09 11:59:38;;;;;;;;;;;;;;;18.84;22.10;95552.31;5039659;23;19936;-81
2021/05/09 12:02:24;;;;;;;;;;;;;;;18.74;20.32;95560.25;4983577;28;19918;-78
2021/05/09 12:05:04;;;;;;;;;;;;;;;18.83;20.57;95550.75;4978182;28;19933;-80
2021/05/09 12:07:30;;;;;;;;;;;;;;;18.80;20.71;95552.06;4975088;28;19925;-79
2021/05/09 12:09:57;;;;;;;;;;;;;;;18.73;20.85;95546.28;4974438;28;19922;-80
2021/05/09 12:12:22;;;;;;;;;;;;;;;18.63;21.50;95541.00;4972086;28;19918;-78
2021/05/09 12:14:49;;;;;;;;;;;;;;;18.76;21.53;95550.22;4973392;28;19918;-80
2021/05/09 12:17:27;;;;;;;;;;;;;;;18.84;20.67;95547.84;4986245;28;19918;-80
2021/05/09 12:19:52;;;;;;;;;;;;;;;19.02;20.81;95543.84;4960001;28;19925;-79
2021/05/09 12:22:18;;;;;;;;;;;;;;;18.97;20.79;95535.97;4989326;22;20029;-79
2021/05/09 12:24:56;;;;;;;;;;;;;;;19.03;21.11;95540.16;4986150;28;20383;-80
2021/05/09 12:27:22;;;;;;;;;;;;;;;19.11;20.90;95544.13;4984347;28;20016;-79
2021/05/09 12:29:54;;;;;;;;;;;;;;;19.17;20.94;95549.09;4984669;28;19969;-79
2021/05/09 12:32:23;;;;;;;;;;;;;;;19.14;20.88;95531.19;5068085;22;20016;-79
2021/05/09 12:35:03;;;;;;;;;;;;;;;19.26;21.34;95522.97;4975209;28;20537;-79
2021/05/09 12:37:52;;;;;;;;;;;;;;;19.44;20.97;95529.50;4975389;28;19918;-79
2021/05/09 12:40:21;;;;;;;;;;;;;;;19.44;20.46;95529.50;4965196;28;19938;-79
2021/05/09 12:42:53;;;;;;;;;;;;;;;19.41;20.51;95532.69;4972330;28;20440;-80
2021/05/09 12:45:18;;;;;;;;;;;;;;;19.35;20.70;95523.19;4982250;23;20081;-80
2021/05/09 12:47:43;;;;;;;;;;;;;;;19.18;20.83;95532.22;5006370;28;20016;-80
2021/05/09 12:50:09;;;;;;;;;;;;;;;19.12;21.06;95533.31;4986952;28;19918;-80
2021/05/09 12:52:44;;;;;;;;;;;;;;;19.15;21.37;95530.13;4983227;28;19929;-80
2021/05/09 12:55:23;;;;;;;;;;;;;;;19.08;20.80;95527.00;4986215;28;19918;-80
2021/05/09 12:58:03;;;;;;;;;;;;;;;19.19;20.93;95528.53;4989862;28;19942;-79
2021/05/09 13:00:31;;;;;;;;;;;;;;;19.19;21.14;95522.47;4985545;28;20900;-79
2021/05/09 13:02:57;;;;;;;;;;;;;;;19.06;21.16;95520.41;4983135;28;19922;-79
2021/05/09 13:05:24;;;;;;;;;;;;;;;19.10;21.23;95511.69;4983863;28;20382;-79